createdAt,value
2018-11-28T00:02:07.294Z,4.70
2018-11-28T00:04:42.930Z,4.70
2018-11-28T00:07:28.592Z,4.70
2018-11-28T00:16:44.846Z,4.60
2018-11-28T00:32:27.739Z,4.60
2018-11-28T00:35:16.211Z,4.30
2018-11-28T00:57:36.193Z,4.40
2018-11-28T01:00:36.045Z,4.40
2018-11-28T01:03:06.189Z,4.30
2018-11-28T01:05:34.950Z,4.20
2018-11-28T01:08:09.469Z,4.30
2018-11-28T01:10:38.446Z,4.30
2018-11-28T01:13:07.174Z,4.30
2018-11-28T01:15:35.939Z,4.40
2018-11-28T01:18:05.745Z,4.40
2018-11-28T01:20:34.418Z,4.40
2018-11-28T01:23:03.201Z,4.50
2018-11-28T01:25:31.807Z,4.50
2018-11-28T01:28:00.581Z,4.60
2018-11-28T01:30:29.797Z,4.50
2018-11-28T01:32:59.285Z,4.50
2018-11-28T01:35:28.681Z,4.50
2018-11-28T01:37:58.500Z,4.50
2018-11-28T01:40:27.457Z,4.50
2018-11-28T01:42:56.976Z,4.50
2018-11-28T01:45:25.943Z,4.50
2018-11-28T01:47:55.949Z,4.50
2018-11-28T01:50:25.604Z,4.50
2018-11-28T01:52:55.244Z,4.40
2018-11-28T01:55:24.548Z,4.30
2018-11-28T01:57:59.824Z,4.20
2018-11-28T02:00:28.503Z,4.20
2018-11-28T02:03:00.198Z,4.20
2018-11-28T02:05:29.464Z,4.20
2018-11-28T02:07:58.761Z,4.20
2018-11-28T02:10:27.415Z,4.30
2018-11-28T02:12:56.094Z,4.20
2018-11-28T02:15:27.059Z,4.20
2018-11-28T02:17:57.358Z,4.20
2018-11-28T02:20:26.017Z,4.20
2018-11-28T02:22:54.663Z,4.20
2018-11-28T02:25:23.928Z,4.20
2018-11-28T02:27:52.857Z,4.20
2018-11-28T02:30:29.053Z,4.20
2018-11-28T02:32:58.974Z,4.30
2018-11-28T02:35:28.691Z,4.30
2018-11-28T02:37:58.773Z,4.30
2018-11-28T02:40:27.851Z,4.40
2018-11-28T02:42:57.836Z,4.30
2018-11-28T02:45:27.931Z,4.40
2018-11-28T02:47:57.343Z,4.40
2018-11-28T02:50:26.942Z,4.30
2018-11-28T02:52:56.712Z,4.20
2018-11-28T02:55:25.668Z,4.20
2018-11-28T03:10:54.521Z,4.50
2018-11-28T03:13:38.012Z,4.40
2018-11-28T03:16:20.167Z,4.40
2018-11-28T03:18:54.833Z,4.30
2018-11-28T03:21:30.875Z,4.20
2018-11-28T03:24:05.629Z,4.10
2018-11-28T03:26:49.191Z,4.10
2018-11-28T03:29:27.138Z,4.20
2018-11-28T03:31:55.379Z,4.20
2018-11-28T03:34:23.692Z,4.30
2018-11-28T03:36:52.173Z,4.30
2018-11-28T03:39:20.502Z,4.40
2018-11-28T03:41:48.887Z,4.40
2018-11-28T03:44:17.215Z,4.30
2018-11-28T03:46:45.453Z,4.30
2018-11-28T03:49:13.747Z,4.30
2018-11-28T03:51:42.109Z,4.40
2018-11-28T03:54:10.498Z,4.40
2018-11-28T03:56:38.781Z,4.40
2018-11-28T03:59:07.086Z,4.30
2018-11-28T04:01:35.379Z,4.30
2018-11-28T04:04:03.703Z,4.20
2018-11-28T04:06:31.904Z,4.20
2018-11-28T04:09:00.231Z,4.10
2018-11-28T04:11:28.748Z,4.00
2018-11-28T04:13:56.994Z,3.90
2018-11-28T04:16:25.228Z,3.80
2018-11-28T04:18:53.487Z,3.80
2018-11-28T04:21:21.714Z,3.70
2018-11-28T04:23:50.088Z,3.60
2018-11-28T04:26:18.381Z,3.60
2018-11-28T04:28:46.625Z,3.60
2018-11-28T04:31:14.916Z,3.50
2018-11-28T04:33:43.222Z,3.50
2018-11-28T04:36:11.536Z,3.50
2018-11-28T04:38:40.899Z,3.50
2018-11-28T04:41:09.162Z,3.40
2018-11-28T04:43:37.484Z,3.40
2018-11-28T04:46:06.250Z,3.40
2018-11-28T04:48:34.704Z,3.40
2018-11-28T04:51:03.223Z,3.40
2018-11-28T04:53:32.023Z,3.30
2018-11-28T04:56:00.256Z,3.30
2018-11-28T04:58:28.730Z,3.30
2018-11-28T05:00:58.095Z,3.20
2018-11-28T05:03:30.226Z,3.20
2018-11-28T05:05:58.535Z,3.20
2018-11-28T05:08:26.995Z,3.20
2018-11-28T05:10:55.397Z,3.20
2018-11-28T05:13:23.751Z,3.20
2018-11-28T05:15:52.049Z,3.20
2018-11-28T05:18:20.526Z,3.20
2018-11-28T05:20:48.882Z,3.10
2018-11-28T05:23:17.098Z,3.10
2018-11-28T05:25:45.614Z,3.20
2018-11-28T05:28:13.849Z,3.20
2018-11-28T05:30:42.273Z,3.20
2018-11-28T05:33:10.515Z,3.20
2018-11-28T05:35:39.878Z,3.10
2018-11-28T05:38:13.758Z,3.10
2018-11-28T05:40:43.236Z,3.10
2018-11-28T05:43:11.628Z,3.10
2018-11-28T05:45:39.943Z,3.10
2018-11-28T05:48:08.238Z,3.10
2018-11-28T05:50:36.754Z,3.00
2018-11-28T05:53:05.075Z,3.00
2018-11-28T05:55:33.726Z,3.00
2018-11-28T05:58:02.716Z,3.00
2018-11-28T06:00:35.929Z,3.00
2018-11-28T06:03:05.901Z,3.00
2018-11-28T06:05:34.354Z,2.90
2018-11-28T06:08:02.683Z,2.90
2018-11-28T06:10:31.172Z,2.90
2018-11-28T06:12:59.477Z,2.90
2018-11-28T06:15:27.841Z,2.90
2018-11-28T06:17:56.206Z,2.80
2018-11-28T06:20:24.564Z,2.90
2018-11-28T06:22:53.016Z,2.80
2018-11-28T06:25:21.613Z,2.80
2018-11-28T06:27:56.165Z,2.80
2018-11-28T06:30:24.717Z,2.80
2018-11-28T06:32:54.328Z,2.80
2018-11-28T06:35:22.579Z,2.80
2018-11-28T06:37:52.100Z,2.80
2018-11-28T06:40:24.335Z,2.80
2018-11-28T06:42:51.656Z,2.80
2018-11-28T06:45:23.256Z,2.80
2018-11-28T06:47:52.941Z,2.80
2018-11-28T06:50:21.518Z,2.80
2018-11-28T06:52:51.174Z,2.80
2018-11-28T06:55:22.869Z,2.80
2018-11-28T06:57:51.548Z,2.80
2018-11-28T07:00:21.531Z,2.80
2018-11-28T07:02:51.443Z,2.90
2018-11-28T07:05:27.050Z,2.80
2018-11-28T07:07:57.833Z,2.90
2018-11-28T07:10:27.506Z,2.90
2018-11-28T07:12:58.267Z,2.90
2018-11-28T07:15:28.032Z,2.90
2018-11-28T07:21:00.877Z,2.90
2018-11-28T07:23:30.892Z,2.90
2018-11-28T07:26:01.158Z,3.00
2018-11-28T07:28:31.932Z,2.90
2018-11-28T07:31:02.385Z,2.90
2018-11-28T07:33:31.132Z,3.00
2018-11-28T07:35:59.858Z,3.00
2018-11-28T07:38:28.306Z,3.10
2018-11-28T07:40:56.913Z,3.20
2018-11-28T07:43:25.213Z,3.20
2018-11-28T07:45:53.728Z,3.30
2018-11-28T07:48:22.781Z,3.40
2018-11-28T07:50:51.289Z,3.40
2018-11-28T07:53:19.553Z,3.40
2018-11-28T07:55:47.862Z,3.50
2018-11-28T07:58:16.143Z,3.60
2018-11-28T08:00:45.934Z,3.60
2018-11-28T08:03:14.303Z,3.60
2018-11-28T08:05:42.630Z,3.70
2018-11-28T08:08:11.553Z,3.70
2018-11-28T08:10:40.269Z,3.70
2018-11-28T08:13:09.927Z,3.80
2018-11-28T08:15:39.890Z,3.60
2018-11-28T08:18:08.957Z,3.50
2018-11-28T08:20:37.537Z,3.50
2018-11-28T08:23:06.004Z,3.50
2018-11-28T08:25:34.796Z,3.50
2018-11-28T08:28:03.240Z,3.50
2018-11-28T08:30:31.929Z,3.50
2018-11-28T08:33:00.415Z,3.70
2018-11-28T08:35:29.014Z,3.80
2018-11-28T08:37:57.570Z,3.90
2018-11-28T08:40:26.580Z,4.00
2018-11-28T08:42:56.502Z,4.00
2018-11-28T08:45:25.009Z,4.10
2018-11-28T08:47:56.281Z,4.10
2018-11-28T08:50:34.807Z,4.20
2018-11-28T08:53:03.383Z,4.20
2018-11-28T08:55:31.850Z,4.20
2018-11-28T08:58:01.528Z,4.30
2018-11-28T09:00:31.091Z,4.30
2018-11-28T09:03:02.622Z,4.20
2018-11-28T09:05:31.198Z,4.20
2018-11-28T09:07:59.613Z,4.30
2018-11-28T09:10:28.674Z,4.50
2018-11-28T09:12:57.124Z,4.60
2018-11-28T09:15:31.892Z,4.50
2018-11-28T09:18:00.412Z,4.40
2018-11-28T09:20:28.974Z,4.50
2018-11-28T09:22:57.362Z,4.60
2018-11-28T09:25:25.790Z,4.50
2018-11-28T09:27:56.264Z,4.60
2018-11-28T09:30:38.064Z,4.50
2018-11-28T09:33:06.594Z,4.60
2018-11-28T09:35:34.898Z,4.70
2018-11-28T09:38:03.739Z,4.90
2018-11-28T09:40:32.120Z,5.10
2018-11-28T09:43:00.523Z,5.20
2018-11-28T09:45:29.596Z,5.20
2018-11-28T09:47:57.920Z,5.30
2018-11-28T09:50:26.749Z,5.50
2018-11-28T09:52:55.181Z,5.30
2018-11-28T09:55:26.640Z,5.40
2018-11-28T09:57:55.180Z,5.40
2018-11-28T10:00:24.982Z,5.50
2018-11-28T10:02:56.227Z,5.60
2018-11-28T10:05:27.307Z,5.50
2018-11-28T10:07:55.671Z,5.30
2018-11-28T10:10:24.031Z,5.40
2018-11-28T10:12:52.536Z,5.50
2018-11-28T10:15:22.116Z,5.60
2018-11-28T10:17:50.532Z,5.70
2018-11-28T10:20:19.290Z,5.70
2018-11-28T10:22:48.803Z,5.80
2018-11-28T10:25:21.607Z,5.60
2018-11-28T10:28:00.748Z,5.60
2018-11-28T10:30:37.690Z,5.70
2018-11-28T10:33:09.513Z,5.70
2018-11-28T10:35:39.161Z,5.80
2018-11-28T10:38:07.654Z,5.90
2018-11-28T10:40:36.574Z,5.60
2018-11-28T10:43:05.918Z,5.50
2018-11-28T10:45:34.764Z,5.60
2018-11-28T10:48:03.239Z,5.70
2018-11-28T10:50:31.652Z,5.90
2018-11-28T10:52:59.875Z,6.00
2018-11-28T10:55:28.376Z,5.70
2018-11-28T10:57:56.843Z,5.80
2018-11-28T11:00:33.846Z,6.00
2018-11-28T11:03:08.324Z,6.10
2018-11-28T11:05:42.369Z,6.10
2018-11-28T11:08:16.346Z,6.30
2018-11-28T11:10:50.310Z,6.30
2018-11-28T11:13:25.189Z,6.40
2018-11-28T11:15:54.565Z,6.40
2018-11-28T11:18:23.011Z,6.50
2018-11-28T11:20:51.842Z,6.60
2018-11-28T11:23:20.126Z,6.50
2018-11-28T11:25:48.648Z,6.40
2018-11-28T11:28:17.186Z,6.40
2018-11-28T11:30:45.759Z,6.40
2018-11-28T11:33:14.267Z,6.40
2018-11-28T11:35:42.706Z,6.40
2018-11-28T11:38:11.174Z,6.50
2018-11-28T11:40:39.561Z,6.50
2018-11-28T11:43:08.602Z,6.60
2018-11-28T11:45:36.924Z,6.50
2018-11-28T11:48:05.813Z,6.60
2018-11-28T11:50:34.318Z,6.50
2018-11-28T11:53:02.731Z,6.60
2018-11-28T11:55:31.058Z,6.70
2018-11-28T11:57:59.695Z,6.80
2018-11-28T12:00:28.209Z,6.90
2018-11-28T12:03:04.253Z,6.90
2018-11-28T12:05:32.557Z,7.10
2018-11-28T12:08:00.834Z,7.00
2018-11-28T12:10:29.165Z,6.90
2018-11-28T12:12:57.713Z,6.90
2018-11-28T12:15:26.250Z,6.90
2018-11-28T12:17:54.714Z,7.10
2018-11-28T12:20:36.342Z,7.10
2018-11-28T12:23:05.261Z,7.10
2018-11-28T12:25:33.920Z,7.10
2018-11-28T12:28:02.399Z,7.10
2018-11-28T12:30:30.803Z,7.00
2018-11-28T12:32:59.097Z,6.90
2018-11-28T12:35:27.414Z,6.90
2018-11-28T12:37:55.885Z,6.90
2018-11-28T12:40:24.360Z,6.90
2018-11-28T12:42:53.274Z,6.90
2018-11-28T12:45:21.903Z,7.00
2018-11-28T12:47:50.634Z,6.90
2018-11-28T12:50:26.241Z,6.90
2018-11-28T12:52:56.477Z,6.80
2018-11-28T12:55:25.197Z,6.60
2018-11-28T12:57:54.367Z,6.60
2018-11-28T13:00:27.169Z,6.60
2018-11-28T13:02:55.557Z,6.70
2018-11-28T13:05:27.278Z,6.70
2018-11-28T13:07:55.610Z,6.80
2018-11-28T13:10:29.745Z,6.80
2018-11-28T13:12:58.032Z,6.90
2018-11-28T13:15:26.735Z,7.00
2018-11-28T13:17:55.157Z,7.00
2018-11-28T13:20:23.598Z,7.00
2018-11-28T13:22:54.233Z,7.00
2018-11-28T13:25:26.058Z,7.00
2018-11-28T13:27:54.764Z,7.00
2018-11-28T13:30:24.575Z,7.00
2018-11-28T13:32:54.803Z,7.00
2018-11-28T13:35:26.276Z,7.10
2018-11-28T13:38:01.085Z,7.10
2018-11-28T13:40:29.666Z,7.20
2018-11-28T13:42:58.014Z,7.20
2018-11-28T13:45:30.243Z,7.20
2018-11-28T13:47:58.589Z,7.20
2018-11-28T13:50:27.001Z,7.20
2018-11-28T13:52:56.584Z,7.30
2018-11-28T13:55:38.518Z,7.30
2018-11-28T13:58:02.517Z,7.30
2018-11-28T14:00:30.859Z,7.40
2018-11-28T14:02:59.187Z,7.40
2018-11-28T14:05:27.583Z,7.40
2018-11-28T14:07:55.922Z,7.40
2018-11-28T14:10:24.211Z,7.40
2018-11-28T14:12:52.725Z,7.30
2018-11-28T14:15:22.892Z,7.30
2018-11-28T14:17:59.320Z,7.30
2018-11-28T14:20:27.672Z,7.30
2018-11-28T14:22:55.993Z,7.40
2018-11-28T14:25:24.382Z,7.30
2018-11-28T14:27:52.744Z,7.30
2018-11-28T14:30:25.193Z,7.20
2018-11-28T14:32:52.789Z,7.20
2018-11-28T14:35:22.244Z,7.30
2018-11-28T14:37:50.975Z,7.30
2018-11-28T14:40:21.428Z,7.10
2018-11-28T14:42:53.789Z,7.10
2018-11-28T14:45:22.262Z,7.10
2018-11-28T14:47:51.552Z,6.90
2018-11-28T14:50:21.557Z,6.90
2018-11-28T14:52:50.220Z,7.00
2018-11-28T14:55:20.588Z,6.90
2018-11-28T14:57:48.844Z,6.90
2018-11-28T15:00:22.791Z,6.90
2018-11-28T15:03:14.884Z,6.80
2018-11-28T15:07:53.080Z,6.80
2018-11-28T15:10:34.664Z,6.80
2018-11-28T15:13:03.050Z,6.70
2018-11-28T15:15:31.457Z,6.70
2018-11-28T15:17:59.856Z,6.70
2018-11-28T15:20:28.154Z,6.60
2018-11-28T15:22:56.591Z,6.60
2018-11-28T15:25:25.118Z,6.60
2018-11-28T15:27:53.446Z,6.60
2018-11-28T15:30:22.384Z,6.60
2018-11-28T15:32:51.363Z,6.50
2018-11-28T15:35:20.235Z,6.40
2018-11-28T15:37:48.947Z,6.40
2018-11-28T15:40:17.663Z,6.50
2018-11-28T15:42:46.255Z,6.40
2018-11-28T15:45:15.382Z,6.40
2018-11-28T15:47:44.132Z,6.40
2018-11-28T15:50:13.013Z,6.40
2018-11-28T15:52:42.768Z,6.30
2018-11-28T15:55:13.052Z,6.30
2018-11-28T15:57:42.011Z,6.30
2018-11-28T16:00:17.788Z,6.30
2018-11-28T16:02:46.652Z,6.30
2018-11-28T16:05:15.372Z,6.30
2018-11-28T16:07:44.640Z,6.20
2018-11-28T16:10:19.660Z,6.20
2018-11-28T16:12:49.016Z,6.10
2018-11-28T16:15:21.783Z,6.10
2018-11-28T16:17:50.533Z,6.10
2018-11-28T16:20:19.131Z,6.10
2018-11-28T16:22:48.123Z,6.10
2018-11-28T16:25:16.625Z,6.00
2018-11-28T16:27:45.219Z,6.00
2018-11-28T16:30:16.280Z,6.00
2018-11-28T16:32:46.010Z,5.90
2018-11-28T16:35:16.191Z,5.90
2018-11-28T16:37:45.106Z,5.90
2018-11-28T16:40:15.282Z,5.90
2018-11-28T16:42:44.202Z,5.90
2018-11-28T16:45:18.639Z,5.90
2018-11-28T16:47:47.492Z,5.80
2018-11-28T16:50:17.933Z,5.80
2018-11-28T16:52:47.023Z,5.80
2018-11-28T16:55:17.046Z,5.80
2018-11-28T16:57:54.201Z,5.80
2018-11-28T17:00:25.272Z,5.70
2018-11-28T17:02:54.881Z,5.80
2018-11-28T17:05:23.686Z,5.80
2018-11-28T17:07:53.160Z,5.70
2018-11-28T17:10:26.840Z,5.70
2018-11-28T17:12:56.618Z,5.80
2018-11-28T17:15:25.135Z,5.80
2018-11-28T17:17:53.498Z,5.80
2018-11-28T17:20:24.509Z,5.80
2018-11-28T17:22:54.771Z,5.70
2018-11-28T17:25:25.076Z,5.70
2018-11-28T17:27:53.557Z,5.60
2018-11-28T17:30:24.941Z,5.60
2018-11-28T17:32:53.374Z,5.60
2018-11-28T17:35:21.819Z,5.60
2018-11-28T17:37:50.730Z,5.60
2018-11-28T17:40:22.152Z,5.60
2018-11-28T17:42:53.957Z,5.50
2018-11-28T17:45:23.127Z,5.50
2018-11-28T17:47:51.866Z,5.50
2018-11-28T17:50:23.433Z,5.50
2018-11-28T17:53:16.240Z,5.50
2018-11-28T17:55:53.531Z,5.50
2018-11-28T17:58:22.070Z,5.50
2018-11-28T18:00:50.799Z,5.50
2018-11-28T18:03:20.230Z,5.50
2018-11-28T18:05:48.941Z,5.40
2018-11-28T18:08:17.936Z,5.40
2018-11-28T18:10:46.482Z,5.50
2018-11-28T18:13:16.891Z,5.40
2018-11-28T18:15:52.738Z,5.40
2018-11-28T18:18:27.705Z,5.30
2018-11-28T18:20:56.184Z,5.30
2018-11-28T18:23:24.737Z,5.20
2018-11-28T18:25:54.700Z,5.20
2018-11-28T18:28:23.605Z,5.20
2018-11-28T18:30:52.442Z,5.10
2018-11-28T18:33:21.789Z,5.10
2018-11-28T18:35:50.471Z,5.00
2018-11-28T18:38:19.440Z,5.00
2018-11-28T18:40:48.205Z,5.10
2018-11-28T18:43:16.817Z,5.10
2018-11-28T18:45:50.506Z,5.10
2018-11-28T18:48:19.897Z,5.10
2018-11-28T18:50:48.464Z,5.10
2018-11-28T18:53:17.224Z,5.00
2018-11-28T18:55:47.702Z,4.90
2018-11-28T18:58:16.578Z,4.90
2018-11-28T19:00:45.521Z,4.80
2018-11-28T19:03:14.786Z,4.70
2018-11-28T19:05:43.588Z,4.60
2018-11-28T19:11:05.902Z,4.50
2018-11-28T19:13:34.918Z,4.40
2018-11-28T19:16:03.975Z,4.40
2018-11-28T19:18:33.043Z,4.40
2018-11-28T19:21:01.807Z,4.40
2018-11-28T19:23:30.575Z,4.40
2018-11-28T19:26:01.335Z,4.50
2018-11-28T19:28:31.510Z,4.60
2018-11-28T19:31:00.330Z,4.60
2018-11-28T19:33:29.146Z,4.60
2018-11-28T19:35:59.013Z,4.60
2018-11-28T19:38:28.205Z,4.60
2018-11-28T19:41:02.420Z,4.60
2018-11-28T19:43:30.926Z,4.60
2018-11-28T19:45:59.983Z,4.60
2018-11-28T19:48:29.013Z,4.60
2018-11-28T19:50:58.749Z,4.70
2018-11-28T19:53:27.788Z,4.70
2018-11-28T19:55:56.427Z,4.80
2018-11-28T19:58:26.503Z,4.80
2018-11-28T20:00:55.487Z,4.80
2018-11-28T20:06:10.384Z,4.70
2018-11-28T20:08:39.385Z,4.70
2018-11-28T20:11:08.308Z,4.70
2018-11-28T20:13:37.170Z,4.70
2018-11-28T20:16:08.450Z,4.70
2018-11-28T20:32:25.330Z,4.90
2018-11-28T20:34:55.741Z,4.60
2018-11-28T20:37:25.108Z,4.50
2018-11-28T20:39:54.594Z,4.60
2018-11-28T20:42:24.486Z,4.60
2018-11-28T20:44:54.510Z,4.70
2018-11-28T20:47:23.411Z,4.80
2018-11-28T20:49:53.051Z,4.90
2018-11-28T20:52:22.457Z,4.80
2018-11-28T20:54:51.961Z,4.90
2018-11-28T20:57:24.710Z,5.00
2018-11-28T20:59:54.395Z,4.90
2018-11-28T21:02:51.579Z,4.80
2018-11-28T21:05:43.436Z,4.90
2018-11-28T21:08:12.503Z,4.90
2018-11-28T21:10:51.219Z,4.80
2018-11-28T21:13:24.071Z,4.80
2018-11-28T21:15:53.680Z,4.90
2018-11-28T21:18:22.775Z,5.00
2018-11-28T21:20:51.611Z,5.00
2018-11-28T21:23:22.961Z,5.10
2018-11-28T21:25:53.346Z,5.00
2018-11-28T21:34:01.566Z,4.90
2018-11-28T21:36:32.311Z,4.90
2018-11-28T21:39:02.045Z,4.90
2018-11-28T21:41:31.342Z,5.00
2018-11-28T21:44:00.001Z,5.00
2018-11-28T21:46:28.749Z,5.00
2018-11-28T21:48:57.419Z,4.90
2018-11-28T21:51:26.365Z,4.80
2018-11-28T21:53:55.009Z,4.80
2018-11-28T21:56:23.494Z,4.90
2018-11-28T21:58:52.140Z,4.90
2018-11-28T22:01:20.676Z,5.00
2018-11-28T22:03:49.269Z,5.00
2018-11-28T22:06:18.053Z,5.10
2018-11-28T22:08:47.070Z,5.10
2018-11-28T22:11:15.839Z,5.10
2018-11-28T22:13:44.508Z,5.00
2018-11-28T22:16:13.342Z,4.90
2018-11-28T22:18:44.780Z,4.90
2018-11-28T22:21:13.397Z,4.90
2018-11-28T22:23:42.099Z,5.00
2018-11-28T22:26:10.840Z,5.00
2018-11-28T22:28:39.646Z,5.00
2018-11-28T22:31:08.316Z,5.10
2018-11-28T22:33:36.804Z,5.10
2018-11-28T22:36:05.721Z,5.00
2018-11-28T22:38:34.770Z,5.00
2018-11-28T22:41:03.576Z,5.00
2018-11-28T22:43:31.993Z,5.00
2018-11-28T22:46:00.514Z,5.00
2018-11-28T22:48:35.792Z,5.00
2018-11-28T22:51:04.527Z,5.00
2018-11-28T22:53:33.119Z,5.00
2018-11-28T22:56:01.862Z,5.10
2018-11-28T22:58:30.663Z,5.00
2018-11-28T23:01:04.928Z,5.00
2018-11-28T23:03:33.476Z,5.00
2018-11-28T23:06:02.144Z,5.00
2018-11-28T23:08:30.613Z,4.90
2018-11-28T23:10:59.238Z,4.80
2018-11-28T23:13:27.698Z,4.90
2018-11-28T23:15:56.214Z,4.90
2018-11-28T23:18:24.793Z,5.00
2018-11-28T23:20:53.365Z,5.00
2018-11-28T23:23:21.808Z,5.00
2018-11-28T23:25:50.430Z,5.10
2018-11-28T23:28:19.084Z,5.20
2018-11-28T23:30:49.232Z,5.00
2018-11-28T23:33:19.541Z,5.00
2018-11-28T23:35:49.339Z,5.00
2018-11-28T23:38:18.635Z,5.00
2018-11-28T23:40:52.177Z,4.90
2018-11-28T23:43:20.900Z,5.00
2018-11-28T23:45:50.335Z,5.00
2018-11-28T23:48:19.308Z,5.10
2018-11-28T23:50:48.483Z,5.20
2018-11-28T23:53:17.447Z,5.20
2018-11-28T23:55:46.286Z,5.20
2018-11-28T23:58:15.717Z,5.10
